Toms Brook, Virginia
Current Conditions -  °F | °C
As of 12:15 AM on Tuesday 21 Oct 2014 (Local Time) from KFRR Reporting Station
Overcast Overcast  
Wind Chill: 50°   Ceiling: 11000
Heat Index: 50°   Visibility: 10mi
Dew Point: 46°   Wind: 0mph
Humidity: 87%   Direction: NA
Pressure: 29.9"   Gusts: NA
Location:  38.95°N, 78.44°W
Report Text: KFRR 210415Z AUTO 00000KT 10SM OVC110 10/08 A2990 RMK AO1
Loading
Personal Weather Stations






























Interactive Weather Map
Tropical Storm Tracking
New forecast layout! Learn more

10-Day Weather Forecast

Advertisements
Track Severe Weather on mobile